createdAt,value
2023-03-12T00:00:55.233Z,98487.44
2023-03-12T00:03:23.976Z,98496.81
2023-03-12T00:05:51.373Z,98512.63
2023-03-12T00:08:18.766Z,98513.47
2023-03-12T00:10:46.453Z,98509.19
2023-03-12T00:13:13.840Z,98518.59
2023-03-12T00:15:41.270Z,98515.09
2023-03-12T00:18:08.984Z,98524.72
2023-03-12T00:20:36.347Z,98530.13
2023-03-12T00:23:03.941Z,98541.19
2023-03-12T00:25:31.704Z,98537.03
2023-03-12T00:27:59.121Z,98535.47
2023-03-12T00:30:28.348Z,98547.97
2023-03-12T00:32:56.338Z,98539.75
2023-03-12T00:35:23.743Z,98545.06
2023-03-12T00:37:51.141Z,98538.88
2023-03-12T00:40:18.986Z,98545.28
2023-03-12T00:42:46.380Z,98545.16
2023-03-12T00:45:13.809Z,98557.09
2023-03-12T00:47:41.720Z,98561.94
2023-03-12T00:50:09.704Z,98562.13
2023-03-12T00:52:37.077Z,98570.41
2023-03-12T00:55:05.170Z,98573.81
2023-03-12T00:57:32.570Z,98574.06
2023-03-12T01:00:00.014Z,98580.91
2023-03-12T01:02:27.727Z,98577.88
2023-03-12T01:04:55.105Z,98575.31
2023-03-12T01:07:22.894Z,98585.19
2023-03-12T01:09:50.535Z,98591.22
2023-03-12T01:12:18.436Z,98597.56
2023-03-12T01:14:45.827Z,98590.66
2023-03-12T01:17:13.534Z,98592.75
2023-03-12T01:19:40.918Z,98587.22
2023-03-12T01:22:08.337Z,98588.72
2023-03-12T01:24:36.006Z,98593.19
2023-03-12T01:27:03.999Z,98593.50
2023-03-12T01:29:31.421Z,98606.03
2023-03-12T01:31:59.354Z,98610.81
2023-03-12T01:34:26.752Z,98597.94
2023-03-12T01:36:55.410Z,98605.69
2023-03-12T01:39:23.123Z,98606.31
2023-03-12T01:41:50.508Z,98613.47
2023-03-12T01:44:17.946Z,98615.31
2023-03-12T01:46:48.467Z,98611.50
2023-03-12T01:49:18.959Z,98610.91
2023-03-12T01:52:03.446Z,98607.34
2023-03-12T01:54:36.595Z,98609.22
2023-03-12T01:57:06.837Z,98596.31
2023-03-12T01:59:39.600Z,98604.16
2023-03-12T02:02:08.171Z,98606.00
2023-03-12T02:04:37.096Z,98614.81
2023-03-12T02:07:13.501Z,98617.59
2023-03-12T02:09:44.300Z,98631.44
2023-03-12T02:12:12.099Z,98627.84
2023-03-12T02:14:39.729Z,98629.81
2023-03-12T02:17:07.592Z,98641.91
2023-03-12T02:19:52.150Z,98649.84
2023-03-12T02:22:21.109Z,98652.19
2023-03-12T02:24:53.239Z,98648.66
2023-03-12T02:27:21.570Z,98652.13
2023-03-12T02:29:49.733Z,98650.91
2023-03-12T02:32:23.499Z,98654.72
2023-03-12T02:34:51.190Z,98659.84
2023-03-12T02:37:19.648Z,98666.50
2023-03-12T02:40:06.049Z,98653.66
2023-03-12T02:42:34.204Z,98659.59
2023-03-12T02:45:02.305Z,98669.84
2023-03-12T02:47:29.780Z,98681.03
2023-03-12T02:49:57.451Z,98684.16
2023-03-12T02:52:24.935Z,98684.38
2023-03-12T02:54:52.384Z,98678.06
2023-03-12T02:57:20.073Z,98697.50
2023-03-12T02:59:47.491Z,98700.44
2023-03-12T03:02:15.484Z,98705.16
2023-03-12T03:04:43.483Z,98709.69
2023-03-12T03:07:10.856Z,98706.22
2023-03-12T03:09:38.300Z,98721.81
2023-03-12T03:12:06.296Z,98728.84
2023-03-12T03:14:34.006Z,98726.16
2023-03-12T03:17:01.430Z,98724.94
2023-03-12T03:19:29.124Z,98730.84
2023-03-12T03:21:56.525Z,98738.78
2023-03-12T03:24:23.943Z,98743.84
2023-03-12T03:26:51.768Z,98741.81
2023-03-12T03:29:19.338Z,98739.66
2023-03-12T03:31:46.761Z,98745.84
2023-03-12T03:34:14.468Z,98745.38
2023-03-12T03:36:41.907Z,98754.66
2023-03-12T03:39:09.714Z,98762.44
2023-03-12T03:41:37.464Z,98769.59
2023-03-12T03:44:05.479Z,98771.59
2023-03-12T03:46:38.516Z,98775.22
2023-03-12T03:49:06.697Z,98757.47
2023-03-12T03:51:34.489Z,98768.09
2023-03-12T03:54:02.310Z,98778.44
2023-03-12T03:56:30.187Z,98774.50
2023-03-12T03:58:58.350Z,98766.25
2023-03-12T04:01:26.283Z,98760.47
2023-03-12T04:03:55.270Z,98755.12
2023-03-12T04:06:23.137Z,98758.09
2023-03-12T04:08:50.908Z,98762.84
2023-03-12T04:11:20.489Z,98769.44
2023-03-12T04:13:48.377Z,98778.88
2023-03-12T04:16:16.615Z,98791.00
2023-03-12T04:18:45.107Z,98783.16
2023-03-12T04:21:13.733Z,98791.41
2023-03-12T04:23:41.840Z,98793.00
2023-03-12T04:26:09.789Z,98804.44
2023-03-12T04:28:37.747Z,98812.16
2023-03-12T04:31:07.583Z,98813.88
2023-03-12T04:33:37.052Z,98831.03
2023-03-12T04:36:05.658Z,98841.31
2023-03-12T04:38:33.593Z,98850.16
2023-03-12T04:41:02.507Z,98847.22
2023-03-12T04:43:30.913Z,98856.28
2023-03-12T04:45:58.867Z,98861.84
2023-03-12T04:48:27.052Z,98863.88
2023-03-12T04:50:55.012Z,98868.69
2023-03-12T04:53:23.113Z,98872.37
2023-03-12T04:55:52.417Z,98871.09
2023-03-12T04:58:20.719Z,98864.31
2023-03-12T05:00:49.462Z,98871.31
2023-03-12T05:03:18.182Z,98870.94
2023-03-12T05:05:45.858Z,98869.78
2023-03-12T05:08:13.281Z,98872.87
2023-03-12T05:10:41.083Z,98877.53
2023-03-12T05:13:19.678Z,98875.88
2023-03-12T05:15:50.681Z,98874.38
2023-03-12T05:18:20.574Z,98870.00
2023-03-12T05:20:58.530Z,98880.41
2023-03-12T05:23:26.037Z,98887.34
2023-03-12T05:25:53.857Z,98887.87
2023-03-12T05:28:21.910Z,98891.78
2023-03-12T05:30:49.511Z,98890.94
2023-03-12T05:33:17.222Z,98899.66
2023-03-12T05:35:44.722Z,98908.78
2023-03-12T05:38:12.141Z,98909.22
2023-03-12T05:40:39.806Z,98919.59
2023-03-12T05:43:07.229Z,98916.50
2023-03-12T05:45:34.749Z,98917.53
2023-03-12T05:48:03.078Z,98920.63
2023-03-12T05:50:30.712Z,98921.97
2023-03-12T05:52:58.156Z,98936.75
2023-03-12T05:55:25.894Z,98945.34
2023-03-12T05:57:54.220Z,98944.75
2023-03-12T06:00:22.010Z,98952.53
2023-03-12T06:02:51.217Z,98951.97
2023-03-12T06:05:19.628Z,98957.22
2023-03-12T06:07:47.083Z,98957.09
2023-03-12T06:10:14.923Z,98961.44
2023-03-12T06:12:42.442Z,98964.09
2023-03-12T06:15:10.574Z,98968.09
2023-03-12T06:17:38.484Z,98974.47
2023-03-12T06:20:06.886Z,98981.31
2023-03-12T06:22:34.652Z,98982.94
2023-03-12T06:25:02.655Z,98991.50
2023-03-12T06:27:30.101Z,98999.88
2023-03-12T06:29:57.590Z,98997.91
2023-03-12T06:32:26.110Z,99000.22
2023-03-12T06:34:53.647Z,99004.66
2023-03-12T06:37:21.089Z,99006.31
2023-03-12T06:39:49.051Z,99008.84
2023-03-12T06:42:19.653Z,99015.66
2023-03-12T06:44:47.046Z,99005.97
2023-03-12T06:47:17.432Z,99014.62
2023-03-12T06:49:45.084Z,99018.28
2023-03-12T06:52:12.520Z,99015.59
2023-03-12T06:54:40.202Z,99018.87
2023-03-12T06:57:07.623Z,99022.31
2023-03-12T06:59:35.029Z,99028.28
2023-03-12T07:02:02.856Z,99031.13
2023-03-12T07:04:30.288Z,99035.84
2023-03-12T07:06:57.690Z,99036.59
2023-03-12T07:09:25.352Z,99047.28
2023-03-12T07:11:52.712Z,99045.38
2023-03-12T07:14:21.342Z,99047.84
2023-03-12T07:16:49.043Z,99046.38
2023-03-12T07:19:16.638Z,99051.06
2023-03-12T07:21:44.028Z,99051.84
2023-03-12T07:24:11.720Z,99049.97
2023-03-12T07:26:40.033Z,99048.66
2023-03-12T07:29:07.434Z,99058.44
2023-03-12T07:31:35.218Z,99061.00
2023-03-12T07:34:03.313Z,99058.44
2023-03-12T07:36:31.030Z,99058.31
2023-03-12T07:38:58.824Z,99065.28
2023-03-12T07:41:26.220Z,99069.31
2023-03-12T07:43:53.645Z,99069.28
2023-03-12T07:46:21.674Z,99071.09
2023-03-12T07:48:49.105Z,99070.87
2023-03-12T07:51:16.558Z,99066.84
2023-03-12T07:53:44.379Z,99072.44
2023-03-12T07:56:11.934Z,99073.63
2023-03-12T07:58:39.563Z,99075.00
2023-03-12T08:01:07.593Z,99073.28
2023-03-12T08:03:35.845Z,99074.66
2023-03-12T08:06:04.554Z,99077.97
2023-03-12T08:08:32.507Z,99079.63
2023-03-12T08:11:00.634Z,99079.03
2023-03-12T08:13:28.204Z,99076.91
2023-03-12T08:15:55.865Z,99072.50
2023-03-12T08:18:24.720Z,99084.09
2023-03-12T08:20:54.134Z,99080.59
2023-03-12T08:23:22.294Z,99081.25
2023-03-12T08:25:50.877Z,99083.56
2023-03-12T08:28:19.153Z,99076.34
2023-03-12T08:30:51.915Z,99080.84
2023-03-12T08:33:19.904Z,99085.47
2023-03-12T08:35:47.586Z,99092.63
2023-03-12T08:38:15.222Z,99086.37
2023-03-12T08:40:42.954Z,99093.16
2023-03-12T08:43:10.653Z,99096.56
2023-03-12T08:45:38.093Z,99090.62
2023-03-12T08:48:06.711Z,99091.94
2023-03-12T08:50:34.071Z,99090.84
2023-03-12T08:53:01.445Z,99084.63
2023-03-12T08:55:29.140Z,99082.88
2023-03-12T08:57:56.933Z,99078.78
2023-03-12T09:00:25.145Z,99083.28
2023-03-12T09:02:54.209Z,99085.91
2023-03-12T09:05:21.740Z,99079.06
2023-03-12T09:07:50.125Z,99087.13
2023-03-12T09:10:18.291Z,99081.81
2023-03-12T09:12:45.698Z,99083.53
2023-03-12T09:15:13.186Z,99085.56
2023-03-12T09:17:41.411Z,99081.00
2023-03-12T09:20:13.984Z,99084.44
2023-03-12T09:22:42.983Z,99092.56
2023-03-12T09:25:11.273Z,99083.94
2023-03-12T09:27:43.388Z,99079.16
2023-03-12T09:30:16.862Z,99089.28
2023-03-12T09:32:47.503Z,99081.75
2023-03-12T09:35:16.043Z,99084.44
2023-03-12T09:37:43.853Z,99082.94
2023-03-12T09:40:17.094Z,99085.19
2023-03-12T09:42:56.241Z,99081.53
2023-03-12T09:45:30.757Z,99088.72
2023-03-12T09:48:04.604Z,99091.28
2023-03-12T09:50:40.712Z,99094.50
2023-03-12T09:53:30.255Z,99088.34
2023-03-12T09:55:58.918Z,99078.91
2023-03-12T09:58:32.569Z,99069.38
2023-03-12T10:01:25.744Z,99067.47
2023-03-12T10:03:53.348Z,99079.25
2023-03-12T10:06:23.425Z,99066.69
2023-03-12T10:09:03.418Z,99080.78
2023-03-12T10:11:52.524Z,99071.50
2023-03-12T10:14:30.002Z,99080.88
2023-03-12T10:17:39.969Z,99081.84
2023-03-12T10:20:50.499Z,99072.81
2023-03-12T10:23:57.315Z,99061.28
2023-03-12T10:26:27.123Z,99069.88
2023-03-12T10:29:01.084Z,99078.59
2023-03-12T10:31:43.222Z,99094.25
2023-03-12T10:34:49.502Z,99072.44
2023-03-12T10:37:25.964Z,99078.31
2023-03-12T10:39:55.671Z,99087.00
2023-03-12T10:42:28.340Z,99077.34
2023-03-12T10:45:01.519Z,99088.84
2023-03-12T10:47:34.732Z,99085.16
2023-03-12T10:50:15.065Z,99098.53
2023-03-12T10:52:43.510Z,99090.72
2023-03-12T10:55:21.143Z,99090.62
2023-03-12T10:57:49.122Z,99086.84
2023-03-12T11:00:24.852Z,99093.41
2023-03-12T11:03:01.100Z,99092.66
2023-03-12T11:05:49.038Z,99084.81
2023-03-12T11:08:27.245Z,99092.00
2023-03-12T11:10:57.192Z,99090.06
2023-03-12T11:13:41.752Z,99085.38
2023-03-12T11:16:18.924Z,99083.50
2023-03-12T11:19:01.577Z,99090.62
2023-03-12T11:21:38.331Z,99086.81
2023-03-12T11:24:13.680Z,99082.22
2023-03-12T11:26:56.857Z,99087.75
2023-03-12T11:29:27.523Z,99074.28
2023-03-12T11:32:18.625Z,99079.41
2023-03-12T11:34:49.456Z,99087.91
2023-03-12T11:37:49.304Z,99078.87
2023-03-12T11:40:52.087Z,99073.28
2023-03-12T11:43:40.230Z,99075.28
2023-03-12T11:46:27.694Z,99072.13
2023-03-12T11:48:58.526Z,99076.63
2023-03-12T11:51:38.638Z,99080.84
2023-03-12T11:54:09.080Z,99081.00
2023-03-12T11:56:45.591Z,99070.94
2023-03-12T11:59:41.666Z,99081.72
2023-03-12T12:02:36.402Z,99073.34
2023-03-12T12:05:23.445Z,99055.34
2023-03-12T12:08:10.024Z,99061.09
2023-03-12T12:10:58.956Z,99048.44
2023-03-12T12:13:50.956Z,99050.38
2023-03-12T12:16:22.338Z,99045.69
2023-03-12T12:19:11.726Z,99055.56
2023-03-12T12:21:58.140Z,99037.72
2023-03-12T12:24:34.287Z,99035.91
2023-03-12T12:27:23.857Z,99037.53
2023-03-12T12:30:15.284Z,99030.97
2023-03-12T12:33:04.040Z,99035.66
2023-03-12T12:39:08.604Z,99037.12
2023-03-12T12:41:40.368Z,99041.81
2023-03-12T12:44:10.834Z,99036.16
2023-03-12T12:46:52.714Z,99040.22
2023-03-12T12:49:24.797Z,99036.00
2023-03-12T12:52:00.294Z,99042.66
2023-03-12T12:55:00.895Z,99046.00
2023-03-12T12:57:38.641Z,99041.19
2023-03-12T13:00:23.452Z,99029.44
2023-03-12T13:02:51.972Z,99035.44
2023-03-12T13:05:26.279Z,99028.13
2023-03-12T13:07:54.489Z,99036.56
2023-03-12T13:10:34.726Z,99040.53
2023-03-12T13:13:13.597Z,99036.56
2023-03-12T13:15:43.916Z,99042.59
2023-03-12T13:18:22.984Z,99036.66
2023-03-12T13:20:53.492Z,99033.09
2023-03-12T13:23:58.860Z,99022.09
2023-03-12T13:26:46.693Z,99037.88
2023-03-12T13:29:24.137Z,99041.37
2023-03-12T13:31:51.949Z,99043.78
2023-03-12T13:34:19.777Z,99047.91
2023-03-12T13:36:53.926Z,99046.47
2023-03-12T13:39:35.986Z,99050.47
2023-03-12T13:42:28.239Z,99050.16
2023-03-12T13:44:56.557Z,99055.87
2023-03-12T13:47:32.300Z,99047.38
2023-03-12T13:50:03.842Z,99056.34
2023-03-12T13:52:33.060Z,99049.25
2023-03-12T13:55:11.995Z,99056.37
2023-03-12T13:57:44.301Z,99049.47
2023-03-12T14:00:20.918Z,99050.28
2023-03-12T14:02:58.719Z,99052.88
2023-03-12T14:05:27.590Z,99053.72
2023-03-12T14:08:33.228Z,99056.09
2023-03-12T14:11:18.617Z,99055.66
2023-03-12T14:13:52.093Z,99052.25
2023-03-12T14:16:49.631Z,99054.91
2023-03-12T14:19:21.539Z,99053.66
2023-03-12T14:21:50.784Z,99059.31
2023-03-12T14:24:29.954Z,99066.16
2023-03-12T14:27:05.547Z,99062.53
2023-03-12T14:29:52.761Z,99057.88
2023-03-12T14:32:28.494Z,99064.31
2023-03-12T14:35:16.990Z,99061.47
2023-03-12T14:38:33.845Z,99059.88
2023-03-12T14:41:26.306Z,99057.03
2023-03-12T14:44:04.484Z,99054.09
2023-03-12T14:46:32.834Z,99057.38
2023-03-12T14:49:00.766Z,99060.94
2023-03-12T14:51:30.777Z,99054.53
2023-03-12T14:54:03.481Z,99063.09
2023-03-12T14:56:35.161Z,99062.25
2023-03-12T14:59:23.370Z,99062.03
2023-03-12T15:01:51.735Z,99058.34
2023-03-12T15:04:22.332Z,99065.72
2023-03-12T15:06:52.850Z,99070.69
2023-03-12T15:09:26.977Z,99065.19
2023-03-12T15:11:58.623Z,99076.53
2023-03-12T15:14:29.536Z,99070.72
2023-03-12T15:17:00.355Z,99068.81
2023-03-12T15:19:34.364Z,99069.19
2023-03-12T15:22:04.173Z,99069.53
2023-03-12T15:24:38.608Z,99077.16
2023-03-12T15:27:32.369Z,99082.72
2023-03-12T15:30:01.568Z,99080.38
2023-03-12T15:32:31.982Z,99090.03
2023-03-12T15:35:12.710Z,99087.00
2023-03-12T15:37:41.496Z,99085.22
2023-03-12T15:40:27.801Z,99091.72
2023-03-12T15:42:59.094Z,99092.66
2023-03-12T15:45:46.202Z,99089.62
2023-03-12T15:48:46.070Z,99085.06
2023-03-12T15:51:27.095Z,99103.25
2023-03-12T15:54:22.100Z,99090.88
2023-03-12T15:56:50.244Z,99088.47
2023-03-12T15:59:26.511Z,99099.63
2023-03-12T16:01:57.228Z,99099.88
2023-03-12T16:04:26.549Z,99103.00
2023-03-12T16:06:54.777Z,99097.16
2023-03-12T16:09:27.536Z,99103.63
2023-03-12T16:11:58.361Z,99111.97
2023-03-12T16:14:33.226Z,99118.25
2023-03-12T16:17:01.633Z,99116.19
2023-03-12T16:19:30.820Z,99116.34
2023-03-12T16:21:58.876Z,99116.06
2023-03-12T16:24:27.673Z,99112.47
2023-03-12T16:26:57.765Z,99116.50
2023-03-12T16:29:38.507Z,99120.31
2023-03-12T16:32:16.553Z,99117.00
2023-03-12T16:34:46.071Z,99121.22
2023-03-12T16:37:15.542Z,99126.25
2023-03-12T16:39:46.785Z,99123.91
2023-03-12T16:42:18.017Z,99129.12
2023-03-12T16:44:47.371Z,99131.56
2023-03-12T16:47:16.416Z,99131.59
2023-03-12T16:49:45.935Z,99141.53
2023-03-12T16:52:24.860Z,99132.94
2023-03-12T16:54:54.647Z,99137.22
2023-03-12T16:57:38.421Z,99138.88
2023-03-12T17:00:20.307Z,99148.47
2023-03-12T17:02:49.694Z,99154.50
2023-03-12T17:05:20.252Z,99153.56
2023-03-12T17:07:48.216Z,99156.16
2023-03-12T17:10:16.965Z,99160.31
2023-03-12T17:12:48.195Z,99163.66
2023-03-12T17:15:28.614Z,99168.84
2023-03-12T17:17:59.592Z,99165.38
2023-03-12T17:20:28.305Z,99176.72
2023-03-12T17:22:57.360Z,99173.97
2023-03-12T17:25:29.098Z,99169.59
2023-03-12T17:27:58.294Z,99171.31
2023-03-12T17:30:28.639Z,99164.41
2023-03-12T17:33:09.901Z,99166.84
2023-03-12T17:35:42.478Z,99171.91
2023-03-12T17:38:12.279Z,99164.16
2023-03-12T17:40:45.903Z,99164.16
2023-03-12T17:43:15.780Z,99163.31
2023-03-12T17:45:46.266Z,99166.19
2023-03-12T17:48:16.464Z,99172.31
2023-03-12T17:50:48.339Z,99174.75
2023-03-12T17:53:17.076Z,99170.25
2023-03-12T17:55:47.958Z,99173.81
2023-03-12T17:58:20.854Z,99177.09
2023-03-12T18:00:49.680Z,99171.84
2023-03-12T18:03:18.850Z,99154.75
2023-03-12T18:05:53.052Z,99167.84
2023-03-12T18:08:22.443Z,99184.63
2023-03-12T18:10:51.493Z,99166.00
2023-03-12T18:13:20.407Z,99172.72
2023-03-12T18:15:58.523Z,99173.22
2023-03-12T18:18:28.688Z,99180.97
2023-03-12T18:20:57.729Z,99176.00
2023-03-12T18:23:25.980Z,99185.28
2023-03-12T18:25:57.310Z,99189.41
2023-03-12T18:28:26.509Z,99192.47
2023-03-12T18:30:55.160Z,99197.44
2023-03-12T18:33:28.098Z,99202.34
2023-03-12T18:35:57.778Z,99194.03
2023-03-12T18:38:26.803Z,99197.19
2023-03-12T18:41:11.190Z,99198.97
2023-03-12T18:43:40.935Z,99201.75
2023-03-12T18:46:28.741Z,99209.09
2023-03-12T18:48:58.342Z,99203.44
2023-03-12T18:51:28.117Z,99210.06
2023-03-12T18:53:57.095Z,99206.63
2023-03-12T18:56:26.678Z,99202.88
2023-03-12T18:58:59.555Z,99207.78
2023-03-12T19:01:30.778Z,99209.84
2023-03-12T19:03:59.032Z,99207.59
2023-03-12T19:06:29.667Z,99210.34
2023-03-12T19:09:01.890Z,99207.47
2023-03-12T19:11:30.666Z,99212.53
2023-03-12T19:14:03.864Z,99207.69
2023-03-12T19:16:33.034Z,99207.47
2023-03-12T19:19:02.220Z,99203.03
2023-03-12T19:21:32.185Z,99201.16
2023-03-12T19:24:01.502Z,99192.22
2023-03-12T19:26:35.581Z,99196.06
2023-03-12T19:29:09.829Z,99202.66
2023-03-12T19:31:39.189Z,99209.88
2023-03-12T19:34:10.226Z,99213.91
2023-03-12T19:36:39.494Z,99227.56
2023-03-12T19:39:15.249Z,99232.81
2023-03-12T19:41:50.011Z,99240.44
2023-03-12T19:44:19.730Z,99242.81
2023-03-12T19:46:48.855Z,99247.50
2023-03-12T19:49:17.536Z,99258.06
2023-03-12T19:51:46.726Z,99248.72
2023-03-12T19:54:16.047Z,99253.25
2023-03-12T19:56:44.804Z,99253.19
2023-03-12T19:59:32.064Z,99249.56
2023-03-12T20:02:02.224Z,99243.97
2023-03-12T20:04:31.856Z,99251.41
2023-03-12T20:07:00.684Z,99250.53
2023-03-12T20:09:29.608Z,99253.28
2023-03-12T20:11:58.870Z,99257.75
2023-03-12T20:14:29.007Z,99249.59
2023-03-12T20:16:58.135Z,99247.88
2023-03-12T20:19:27.116Z,99237.81
2023-03-12T20:21:58.115Z,99239.09
2023-03-12T20:24:29.692Z,99241.88
2023-03-12T20:26:58.842Z,99242.12
2023-03-12T20:29:28.326Z,99250.91
2023-03-12T20:31:58.439Z,99253.72
2023-03-12T20:34:29.531Z,99266.97
2023-03-12T20:36:59.007Z,99257.34
2023-03-12T20:39:28.421Z,99251.12
2023-03-12T20:41:56.847Z,99250.38
2023-03-12T20:44:27.680Z,99233.34
2023-03-12T20:46:57.277Z,99233.00
2023-03-12T20:49:28.851Z,99240.00
2023-03-12T20:51:57.099Z,99240.63
2023-03-12T20:54:28.081Z,99256.44
2023-03-12T20:56:55.867Z,99265.28
2023-03-12T20:59:24.461Z,99268.00
2023-03-12T21:01:53.236Z,99273.22
2023-03-12T21:04:22.130Z,99277.53
2023-03-12T21:06:52.107Z,99275.84
2023-03-12T21:09:22.656Z,99280.53
2023-03-12T21:11:51.405Z,99266.97
2023-03-12T21:14:19.763Z,99264.69
2023-03-12T21:16:51.079Z,99261.50
2023-03-12T21:19:19.456Z,99264.19
2023-03-12T21:21:47.908Z,99259.56
2023-03-12T21:24:15.546Z,99253.09
2023-03-12T21:26:43.061Z,99260.66
2023-03-12T21:29:11.928Z,99266.12
2023-03-12T21:31:39.603Z,99257.47
2023-03-12T21:34:09.379Z,99264.09
2023-03-12T21:36:37.864Z,99254.94
2023-03-12T21:39:06.041Z,99252.63
2023-03-12T21:41:33.530Z,99255.44
2023-03-12T21:44:02.360Z,99258.12
2023-03-12T21:46:30.850Z,99251.63
2023-03-12T21:48:59.094Z,99251.97
2023-03-12T21:51:26.955Z,99255.25
2023-03-12T21:53:58.229Z,99246.37
2023-03-12T21:56:30.281Z,99249.75
2023-03-12T21:58:58.257Z,99259.63
2023-03-12T22:01:26.096Z,99261.75
2023-03-12T22:03:53.982Z,99259.28
2023-03-12T22:06:21.498Z,99253.75
2023-03-12T22:08:49.352Z,99239.06
2023-03-12T22:11:17.093Z,99241.91
2023-03-12T22:13:44.708Z,99238.69
2023-03-12T22:16:13.708Z,99235.03
2023-03-12T22:18:47.818Z,99235.16
2023-03-12T22:21:18.901Z,99241.22
2023-03-12T22:23:53.727Z,99243.62
2023-03-12T22:26:22.507Z,99245.56
2023-03-12T22:28:52.043Z,99253.25
2023-03-12T22:31:24.349Z,99245.56
2023-03-12T22:33:52.174Z,99231.25
2023-03-12T22:36:20.452Z,99219.84
2023-03-12T22:38:47.907Z,99229.78
2023-03-12T22:41:15.592Z,99223.44
2023-03-12T22:43:43.440Z,99228.12
2023-03-12T22:46:11.263Z,99224.06
2023-03-12T22:48:38.981Z,99227.12
2023-03-12T22:51:06.587Z,99231.06
2023-03-12T22:53:34.208Z,99233.25
2023-03-12T22:56:07.244Z,99229.44
2023-03-12T22:58:34.636Z,99242.66
2023-03-12T23:01:11.084Z,99246.37
2023-03-12T23:03:39.929Z,99242.56
2023-03-12T23:06:16.315Z,99248.94
2023-03-12T23:08:46.141Z,99254.97
2023-03-12T23:11:15.918Z,99259.53
2023-03-12T23:13:44.901Z,99260.09
2023-03-12T23:16:15.134Z,99269.59
2023-03-12T23:18:43.448Z,99284.56
2023-03-12T23:21:13.437Z,99292.25
2023-03-12T23:23:43.555Z,99294.56
2023-03-12T23:26:19.908Z,99288.12
2023-03-12T23:28:47.566Z,99292.94
2023-03-12T23:31:16.106Z,99290.63
2023-03-12T23:33:44.075Z,99289.69
2023-03-12T23:36:14.568Z,99292.25
2023-03-12T23:38:42.780Z,99290.03
2023-03-12T23:41:14.706Z,99290.84
2023-03-12T23:43:42.840Z,99309.94
2023-03-12T23:46:11.235Z,99301.81
2023-03-12T23:48:39.151Z,99305.88
2023-03-12T23:51:14.992Z,99301.06
2023-03-12T23:53:43.770Z,99307.25
2023-03-12T23:56:16.615Z,99304.59
2023-03-12T23:58:44.805Z,99311.22
